createdAt,value
2022-08-01T00:00:31.564Z,66.25
2022-08-01T00:02:58.424Z,69.25
2022-08-01T00:05:25.121Z,68.40
2022-08-01T00:07:52.692Z,59.00
2022-08-01T00:10:19.624Z,69.18
2022-08-01T00:12:46.782Z,67.82
2022-08-01T00:15:15.015Z,73.32
2022-08-01T00:17:42.551Z,63.65
2022-08-01T00:20:11.490Z,70.20
2022-08-01T00:22:38.051Z,67.07
2022-08-01T00:25:05.967Z,64.30
2022-08-01T00:27:32.988Z,68.90
2022-08-01T00:30:12.219Z,75.13
2022-08-01T00:32:40.858Z,62.92
2022-08-01T00:35:07.712Z,65.43
2022-08-01T00:37:34.175Z,66.97
2022-08-01T00:40:00.659Z,57.35
2022-08-01T00:42:27.259Z,62.88
2022-08-01T00:44:53.736Z,67.05
2022-08-01T00:47:20.205Z,71.57
2022-08-01T00:49:46.688Z,68.47
2022-08-01T00:52:13.293Z,61.63
2022-08-01T00:54:39.940Z,64.63
2022-08-01T00:57:10.174Z,66.10
2022-08-01T00:59:37.784Z,58.17
2022-08-01T01:02:15.597Z,62.08
2022-08-01T01:04:43.207Z,73.63
2022-08-01T01:07:49.638Z,61.47
2022-08-01T01:10:23.818Z,67.82
2022-08-01T01:12:56.020Z,67.07
2022-08-01T01:15:43.363Z,67.93
2022-08-01T01:18:21.522Z,64.82
2022-08-01T01:22:06.208Z,64.60
2022-08-01T01:24:39.454Z,65.15
2022-08-01T01:27:24.195Z,64.63
2022-08-01T01:29:59.476Z,67.90
2022-08-01T01:32:39.827Z,73.88
2022-08-01T01:35:13.811Z,61.72
2022-08-01T01:37:41.436Z,66.07
2022-08-01T01:40:09.260Z,62.90
2022-08-01T01:42:40.884Z,75.20
2022-08-01T01:45:08.193Z,67.25
2022-08-01T01:47:35.302Z,64.05
2022-08-01T01:50:03.715Z,65.05
2022-08-01T01:52:30.731Z,67.78
2022-08-01T01:54:58.090Z,61.22
2022-08-01T01:57:25.151Z,67.03
2022-08-01T01:59:55.206Z,66.05
2022-08-01T02:02:23.880Z,67.90
2022-08-01T02:04:51.286Z,70.30
2022-08-01T02:07:20.655Z,67.20
2022-08-01T02:09:48.134Z,63.50
2022-08-01T02:12:16.411Z,67.85
2022-08-01T02:14:43.283Z,62.40
2022-08-01T02:17:13.844Z,72.80
2022-08-01T02:19:41.211Z,65.63
2022-08-01T02:22:11.575Z,71.13
2022-08-01T02:24:44.429Z,66.15
2022-08-01T02:27:16.050Z,69.15
2022-08-01T02:29:46.393Z,74.68
2022-08-01T02:32:16.174Z,70.70
2022-08-01T02:34:44.400Z,71.82
2022-08-01T02:37:10.988Z,67.53
2022-08-01T02:39:38.694Z,71.85
2022-08-01T02:42:07.793Z,66.90
2022-08-01T02:44:39.749Z,69.57
2022-08-01T02:47:06.824Z,71.45
2022-08-01T02:49:36.909Z,78.70
2022-08-01T02:52:07.715Z,65.18
2022-08-01T02:54:35.272Z,68.30
2022-08-01T02:57:03.927Z,69.93
2022-08-01T02:59:34.802Z,68.20
2022-08-01T03:02:03.330Z,61.85
2022-08-01T03:04:31.372Z,68.47
2022-08-01T03:06:59.516Z,76.03
2022-08-01T03:09:27.743Z,68.65
2022-08-01T03:11:57.947Z,78.90
2022-08-01T03:14:25.754Z,58.20
2022-08-01T03:16:52.671Z,68.07
2022-08-01T03:19:21.428Z,68.90
2022-08-01T03:21:48.787Z,62.13
2022-08-01T03:24:15.572Z,61.65
2022-08-01T03:26:42.768Z,62.38
2022-08-01T03:29:17.153Z,62.63
2022-08-01T03:31:45.886Z,68.63
2022-08-01T03:34:12.538Z,60.33
2022-08-01T03:36:46.631Z,56.72
2022-08-01T03:39:17.768Z,59.50
2022-08-01T03:41:52.562Z,54.92
2022-08-01T03:44:26.929Z,55.60
2022-08-01T03:46:59.483Z,53.72
2022-08-01T03:49:30.924Z,57.30
2022-08-01T03:51:58.258Z,58.60
2022-08-01T03:54:26.611Z,51.03
2022-08-01T03:56:53.971Z,61.38
2022-08-01T03:59:21.207Z,56.65
2022-08-01T04:01:48.715Z,56.60
2022-08-01T04:04:15.558Z,61.83
2022-08-01T04:06:45.417Z,62.63
2022-08-01T04:09:13.792Z,58.95
2022-08-01T04:11:41.752Z,57.08
2022-08-01T04:14:09.196Z,61.22
2022-08-01T04:16:36.519Z,57.47
2022-08-01T04:19:03.169Z,50.75
2022-08-01T04:21:31.605Z,56.88
2022-08-01T04:24:00.735Z,57.40
2022-08-01T04:26:28.715Z,53.42
2022-08-01T04:28:56.153Z,55.13
2022-08-01T04:31:23.938Z,56.45
2022-08-01T04:33:51.967Z,62.33
2022-08-01T04:36:22.815Z,58.55
2022-08-01T04:38:52.190Z,58.08
2022-08-01T04:41:19.121Z,62.28
2022-08-01T04:43:45.779Z,65.10
2022-08-01T04:46:12.652Z,63.42
2022-08-01T04:48:39.868Z,65.95
2022-08-01T04:51:14.178Z,61.70
2022-08-01T04:53:40.983Z,61.90
2022-08-01T04:56:07.604Z,68.20
2022-08-01T04:58:34.157Z,66.07
2022-08-01T05:01:00.774Z,66.50
2022-08-01T05:03:27.399Z,61.67
2022-08-01T05:05:53.876Z,64.22
2022-08-01T05:08:23.586Z,60.92
2022-08-01T05:10:50.068Z,63.90
2022-08-01T05:13:16.612Z,57.65
2022-08-01T05:15:43.096Z,61.13
2022-08-01T05:18:09.693Z,69.65
2022-08-01T05:20:36.700Z,62.92
2022-08-01T05:23:03.282Z,71.75
2022-08-01T05:25:31.026Z,65.90
2022-08-01T05:28:19.271Z,61.38
2022-08-01T05:30:46.076Z,60.20
2022-08-01T05:33:12.522Z,58.83
2022-08-01T05:35:48.864Z,59.78
2022-08-01T05:38:16.291Z,62.22
2022-08-01T05:40:42.875Z,52.75
2022-08-01T05:43:09.307Z,47.08
2022-08-01T05:45:35.809Z,49.00
2022-08-01T05:48:02.309Z,50.58
2022-08-01T05:50:28.865Z,42.75
2022-08-01T05:53:00.698Z,48.13
2022-08-01T05:55:27.169Z,44.65
2022-08-01T05:57:53.637Z,38.13
2022-08-01T06:00:20.234Z,43.38
2022-08-01T06:02:46.823Z,40.58
2022-08-01T06:05:13.784Z,40.20
2022-08-01T06:07:40.621Z,36.03
2022-08-01T06:10:08.405Z,33.03
2022-08-01T06:12:35.833Z,34.88
2022-08-01T06:15:02.914Z,33.55
2022-08-01T06:17:29.470Z,33.75
2022-08-01T06:19:56.653Z,28.90
2022-08-01T06:22:23.220Z,27.35
2022-08-01T06:24:49.809Z,28.92
2022-08-01T06:27:21.571Z,29.05
2022-08-01T06:29:50.320Z,25.45
2022-08-01T06:32:29.218Z,24.77
2022-08-01T06:34:56.312Z,23.08
2022-08-01T06:37:23.341Z,21.02
2022-08-01T06:39:53.657Z,19.60
2022-08-01T06:42:20.111Z,23.35
2022-08-01T06:44:46.642Z,22.60
2022-08-01T06:47:16.834Z,18.52
2022-08-01T06:49:43.488Z,17.98
2022-08-01T06:52:10.194Z,18.55
2022-08-01T06:54:36.946Z,17.13
2022-08-01T06:57:06.712Z,18.65
2022-08-01T06:59:33.212Z,15.82
2022-08-01T07:01:59.722Z,16.42
2022-08-01T07:04:26.197Z,14.13
2022-08-01T07:06:52.627Z,16.02
2022-08-01T07:09:19.167Z,13.48
2022-08-01T07:11:45.595Z,15.15
2022-08-01T07:14:12.071Z,17.80
2022-08-01T07:16:38.679Z,12.18
2022-08-01T07:19:05.344Z,12.60
2022-08-01T07:21:40.241Z,14.85
2022-08-01T07:24:13.754Z,10.85
2022-08-01T07:26:53.962Z,11.52
2022-08-01T07:29:30.084Z,10.35
2022-08-01T07:31:57.843Z,10.05
2022-08-01T07:34:25.426Z,8.73
2022-08-01T07:36:53.267Z,9.15
2022-08-01T07:39:20.217Z,10.00
2022-08-01T07:42:06.402Z,7.57
2022-08-01T07:44:33.347Z,8.65
2022-08-01T07:46:59.860Z,7.82
2022-08-01T07:49:26.407Z,8.68
2022-08-01T07:52:13.684Z,7.90
2022-08-01T07:54:39.418Z,6.25
2022-08-01T07:57:06.243Z,8.10
2022-08-01T07:59:32.968Z,8.88
2022-08-01T08:01:59.939Z,7.82
2022-08-01T08:04:27.514Z,9.10
2022-08-01T08:06:56.504Z,9.82
2022-08-01T08:09:23.774Z,9.63
2022-08-01T08:11:50.342Z,10.35
2022-08-01T08:14:17.635Z,11.18
2022-08-01T08:16:44.834Z,8.45
2022-08-01T08:19:12.177Z,7.38
2022-08-01T08:21:39.231Z,13.55
2022-08-01T08:24:26.562Z,8.02
2022-08-01T08:27:01.251Z,9.23
2022-08-01T08:29:30.843Z,10.13
2022-08-01T08:31:58.332Z,9.88
2022-08-01T08:34:25.868Z,7.45
2022-08-01T08:36:52.681Z,10.25
2022-08-01T08:39:20.347Z,7.13
2022-08-01T08:41:49.447Z,6.75
2022-08-01T08:44:17.081Z,5.85
2022-08-01T08:46:46.586Z,7.38
2022-08-01T08:49:16.385Z,6.28
2022-08-01T08:51:43.519Z,8.17
2022-08-01T08:54:12.116Z,8.82
2022-08-01T08:56:39.439Z,7.47
2022-08-01T08:59:05.982Z,8.00
2022-08-01T09:01:36.366Z,7.68
2022-08-01T09:04:06.643Z,9.52
2022-08-01T09:06:33.887Z,6.15
2022-08-01T09:09:01.055Z,6.30
2022-08-01T09:11:27.901Z,6.68
2022-08-01T09:14:10.829Z,6.18
2022-08-01T09:16:39.846Z,6.85
2022-08-01T09:19:40.064Z,5.05
2022-08-01T09:22:07.746Z,5.97
2022-08-01T09:24:35.028Z,4.70
2022-08-01T09:27:03.538Z,7.35
2022-08-01T09:29:37.911Z,6.13
2022-08-01T09:32:08.017Z,5.13
2022-08-01T09:34:34.932Z,8.90
2022-08-01T09:37:03.028Z,6.32
2022-08-01T09:39:43.706Z,8.40
2022-08-01T09:42:29.069Z,5.03
2022-08-01T09:44:56.611Z,2.90
2022-08-01T09:47:38.898Z,3.65
2022-08-01T09:50:10.659Z,1.10
2022-08-01T09:52:37.685Z,1.67
2022-08-01T09:55:07.827Z,0.93
2022-08-01T09:57:34.664Z,1.55
2022-08-01T10:00:02.285Z,0.93
2022-08-01T10:02:33.051Z,0.77
2022-08-01T10:05:08.202Z,1.10
2022-08-01T10:07:43.227Z,0.70
2022-08-01T10:10:14.407Z,0.85
2022-08-01T10:12:45.857Z,1.67
2022-08-01T10:15:19.219Z,1.77
2022-08-01T10:17:52.221Z,0.70
2022-08-01T10:20:30.230Z,0.90
2022-08-01T10:23:02.183Z,1.73
2022-08-01T10:25:41.886Z,0.70
2022-08-01T10:28:23.918Z,2.38
2022-08-01T10:33:52.583Z,1.10
2022-08-01T10:36:10.929Z,2.22
2022-08-01T10:38:37.843Z,2.15
2022-08-01T10:41:06.633Z,2.40
2022-08-01T10:43:35.426Z,1.10
2022-08-01T10:46:03.187Z,2.38
2022-08-01T10:48:44.334Z,3.35
2022-08-01T10:51:18.193Z,1.00
2022-08-01T10:53:54.698Z,3.90
2022-08-01T10:56:27.116Z,0.93
2022-08-01T10:59:11.538Z,1.00
2022-08-01T11:01:38.824Z,1.70
2022-08-01T11:04:17.638Z,1.10
2022-08-01T11:06:51.428Z,2.05
2022-08-01T11:09:37.051Z,1.48
2022-08-01T11:12:07.250Z,1.10
2022-08-01T11:14:55.210Z,1.13
2022-08-01T11:17:32.424Z,1.70
2022-08-01T11:20:23.557Z,1.52
2022-08-01T11:23:03.210Z,1.20
2022-08-01T11:26:05.839Z,1.27
2022-08-01T11:28:36.484Z,2.20
2022-08-01T11:31:03.091Z,1.40
2022-08-01T11:33:46.138Z,1.90
2022-08-01T11:36:55.418Z,0.95
2022-08-01T11:39:13.767Z,1.23
2022-08-01T11:41:41.196Z,1.58
2022-08-01T11:44:11.697Z,1.30
2022-08-01T11:47:09.146Z,2.15
2022-08-01T11:49:41.950Z,1.83
2022-08-01T11:52:10.777Z,2.80
2022-08-01T11:54:53.476Z,2.58
2022-08-01T11:57:33.967Z,1.17
2022-08-01T12:00:20.349Z,1.30
2022-08-01T12:02:47.685Z,1.30
2022-08-01T12:05:17.456Z,1.35
2022-08-01T12:07:45.180Z,1.70
2022-08-01T12:10:17.404Z,1.13
2022-08-01T12:12:45.187Z,1.77
2022-08-01T12:15:12.209Z,2.78
2022-08-01T12:17:58.648Z,1.83
2022-08-01T12:20:32.042Z,2.67
2022-08-01T12:23:09.723Z,2.67
2022-08-01T12:25:37.341Z,2.58
2022-08-01T12:28:08.880Z,1.80
2022-08-01T12:30:37.815Z,2.97
2022-08-01T12:33:06.108Z,1.40
2022-08-01T12:35:33.013Z,2.17
2022-08-01T12:38:08.236Z,4.18
2022-08-01T12:40:38.237Z,4.22
2022-08-01T12:43:08.797Z,2.00
2022-08-01T12:45:56.897Z,3.53
2022-08-01T12:48:24.575Z,2.70
2022-08-01T12:50:53.290Z,2.60
2022-08-01T12:53:20.045Z,1.77
2022-08-01T12:55:59.243Z,2.70
2022-08-01T12:58:33.110Z,2.72
2022-08-01T13:01:10.434Z,2.20
2022-08-01T13:03:38.223Z,2.03
2022-08-01T13:06:13.662Z,3.90
2022-08-01T13:08:40.349Z,2.97
2022-08-01T13:11:10.559Z,3.60
2022-08-01T13:13:47.982Z,3.85
2022-08-01T13:16:25.862Z,4.43
2022-08-01T13:19:01.512Z,2.70
2022-08-01T13:21:52.213Z,4.57
2022-08-01T13:24:27.980Z,3.67
2022-08-01T13:26:59.354Z,3.03
2022-08-01T13:29:33.651Z,3.42
2022-08-01T13:32:01.241Z,3.95
2022-08-01T13:34:35.307Z,4.15
2022-08-01T13:37:02.652Z,3.13
2022-08-01T13:39:42.260Z,3.30
2022-08-01T13:42:09.944Z,2.83
2022-08-01T13:44:36.641Z,6.38
2022-08-01T13:47:15.323Z,3.85
2022-08-01T13:49:42.964Z,4.18
2022-08-01T13:52:10.089Z,6.68
2022-08-01T13:54:37.238Z,3.90
2022-08-01T13:57:04.003Z,5.57
2022-08-01T13:59:30.494Z,5.03
2022-08-01T14:01:57.142Z,4.45
2022-08-01T14:04:24.347Z,4.00
2022-08-01T14:06:50.821Z,3.85
2022-08-01T14:09:24.017Z,5.40
2022-08-01T14:11:51.310Z,4.85
2022-08-01T14:14:17.799Z,6.20
2022-08-01T14:16:45.872Z,5.88
2022-08-01T14:19:12.571Z,5.57
2022-08-01T14:21:39.200Z,5.75
2022-08-01T14:24:07.538Z,4.20
2022-08-01T14:26:34.145Z,4.88
2022-08-01T14:29:02.883Z,9.05
2022-08-01T14:31:34.020Z,5.50
2022-08-01T14:34:01.058Z,6.65
2022-08-01T14:36:30.441Z,8.57
2022-08-01T14:39:00.795Z,6.35
2022-08-01T14:41:28.286Z,8.32
2022-08-01T14:43:55.070Z,6.07
2022-08-01T14:46:21.576Z,6.78
2022-08-01T14:48:48.067Z,6.60
2022-08-01T14:51:14.684Z,6.07
2022-08-01T14:53:44.866Z,5.60
2022-08-01T14:56:13.716Z,7.03
2022-08-01T14:58:40.233Z,6.07
2022-08-01T15:01:09.173Z,4.05
2022-08-01T15:03:35.756Z,6.05
2022-08-01T15:06:03.248Z,4.43
2022-08-01T15:08:30.856Z,2.83
2022-08-01T15:10:57.604Z,3.33
2022-08-01T15:13:24.113Z,4.43
2022-08-01T15:15:50.591Z,2.75
2022-08-01T15:18:17.105Z,3.20
2022-08-01T15:20:44.294Z,5.10
2022-08-01T15:23:10.832Z,1.67
2022-08-01T15:25:41.878Z,3.70
2022-08-01T15:28:11.867Z,6.82
2022-08-01T15:30:38.737Z,3.53
2022-08-01T15:33:05.716Z,4.88
2022-08-01T15:35:32.574Z,3.92
2022-08-01T15:37:59.054Z,4.97
2022-08-01T15:40:25.656Z,3.65
2022-08-01T15:42:53.130Z,7.22
2022-08-01T15:45:45.842Z,5.15
2022-08-01T15:48:08.279Z,3.97
2022-08-01T15:50:34.792Z,3.15
2022-08-01T15:53:01.317Z,4.28
2022-08-01T15:55:27.803Z,5.75
2022-08-01T15:57:54.231Z,5.53
2022-08-01T16:00:20.662Z,5.72
2022-08-01T16:02:47.230Z,6.82
2022-08-01T16:05:13.965Z,7.50
2022-08-01T16:07:59.226Z,4.60
2022-08-01T16:10:27.455Z,5.25
2022-08-01T16:12:54.152Z,4.68
2022-08-01T16:15:20.671Z,5.45
2022-08-01T16:17:47.193Z,7.85
2022-08-01T16:20:13.627Z,8.60
2022-08-01T16:22:40.221Z,6.15
2022-08-01T16:25:07.003Z,8.98
2022-08-01T16:27:33.953Z,8.10
2022-08-01T16:30:05.497Z,7.88
2022-08-01T16:32:40.679Z,5.63
2022-08-01T16:35:11.798Z,6.03
2022-08-01T16:37:40.205Z,4.20
2022-08-01T16:40:07.175Z,5.13
2022-08-01T16:42:34.641Z,8.38
2022-08-01T16:45:08.782Z,6.22
2022-08-01T16:47:40.208Z,6.30
2022-08-01T16:50:09.585Z,6.00
2022-08-01T16:52:41.758Z,5.38
2022-08-01T16:55:09.789Z,4.50
2022-08-01T16:57:39.102Z,4.50
2022-08-01T17:00:08.590Z,6.22
2022-08-01T17:02:37.049Z,4.30
2022-08-01T17:05:07.265Z,7.57
2022-08-01T17:07:36.579Z,7.30
2022-08-01T17:10:03.755Z,6.25
2022-08-01T17:12:32.936Z,8.10
2022-08-01T17:14:59.472Z,5.88
2022-08-01T17:17:28.099Z,5.90
2022-08-01T17:19:54.619Z,7.07
2022-08-01T17:22:21.164Z,5.85
2022-08-01T17:24:47.696Z,9.30
2022-08-01T17:27:14.480Z,9.73
2022-08-01T17:29:44.188Z,8.02
2022-08-01T17:32:14.436Z,9.75
2022-08-01T17:34:42.213Z,7.63
2022-08-01T17:37:09.408Z,8.68
2022-08-01T17:39:39.433Z,5.45
2022-08-01T17:42:07.199Z,9.55
2022-08-01T17:44:33.653Z,5.85
2022-08-01T17:47:00.218Z,6.00
2022-08-01T17:49:52.260Z,7.85
2022-08-01T17:52:13.166Z,5.05
2022-08-01T17:54:39.830Z,6.47
2022-08-01T17:57:08.075Z,8.45
2022-08-01T17:59:34.882Z,7.90
2022-08-01T18:02:01.409Z,10.23
2022-08-01T18:04:31.380Z,7.45
2022-08-01T18:07:00.669Z,7.78
2022-08-01T18:09:32.350Z,6.65
2022-08-01T18:11:59.950Z,11.07
2022-08-01T18:14:40.000Z,8.65
2022-08-01T18:17:08.625Z,7.57
2022-08-01T18:19:38.766Z,7.45
2022-08-01T18:22:05.459Z,7.63
2022-08-01T18:24:40.950Z,6.30
2022-08-01T18:27:07.783Z,6.95
2022-08-01T18:29:47.039Z,8.07
2022-08-01T18:32:15.072Z,10.88
2022-08-01T18:34:41.568Z,8.05
2022-08-01T18:37:08.317Z,10.45
2022-08-01T18:39:39.626Z,6.00
2022-08-01T18:42:06.276Z,13.25
2022-08-01T18:44:32.977Z,10.43
2022-08-01T18:46:59.498Z,7.32
2022-08-01T18:49:26.339Z,10.73
2022-08-01T18:51:54.208Z,7.10
2022-08-01T18:54:20.822Z,9.95
2022-08-01T18:56:47.378Z,9.68
2022-08-01T18:59:14.181Z,10.05
2022-08-01T19:01:44.007Z,6.80
2022-08-01T19:04:11.244Z,11.77
2022-08-01T19:06:40.916Z,10.48
2022-08-01T19:09:07.896Z,7.72
2022-08-01T19:11:35.561Z,13.07
2022-08-01T19:14:03.062Z,8.75
2022-08-01T19:16:30.448Z,11.23
2022-08-01T19:18:56.988Z,10.07
2022-08-01T19:21:24.992Z,15.43
2022-08-01T19:24:10.194Z,8.57
2022-08-01T19:26:37.328Z,9.35
2022-08-01T19:29:16.590Z,7.28
2022-08-01T19:31:48.525Z,10.75
2022-08-01T19:34:17.825Z,9.25
2022-08-01T19:36:47.428Z,11.25
2022-08-01T19:39:16.820Z,7.97
2022-08-01T19:41:46.540Z,11.00
2022-08-01T19:44:15.308Z,9.40
2022-08-01T19:46:43.349Z,10.85
2022-08-01T19:49:14.629Z,9.43
2022-08-01T19:51:43.632Z,14.70
2022-08-01T19:57:17.838Z,8.98
2022-08-01T19:59:46.304Z,12.05
2022-08-01T20:02:18.116Z,10.82
2022-08-01T20:04:50.630Z,11.55
2022-08-01T20:07:19.986Z,10.50
2022-08-01T20:09:54.312Z,8.15
2022-08-01T20:12:28.292Z,12.25
2022-08-01T20:14:58.585Z,12.80
2022-08-01T20:17:25.241Z,9.98
2022-08-01T20:19:52.955Z,12.95
2022-08-01T20:22:34.344Z,15.65
2022-08-01T20:25:04.778Z,9.82
2022-08-01T20:27:31.723Z,12.77
2022-08-01T20:30:01.574Z,10.75
2022-08-01T20:32:34.434Z,12.88
2022-08-01T20:35:08.279Z,10.90
2022-08-01T20:38:05.553Z,9.82
2022-08-01T20:40:30.316Z,15.55
2022-08-01T20:43:03.012Z,15.45
2022-08-01T20:45:35.735Z,11.30
2022-08-01T20:48:06.687Z,15.40
2022-08-01T20:53:27.097Z,13.73
2022-08-01T20:56:31.279Z,11.10
2022-08-01T20:59:11.111Z,11.38
2022-08-01T21:02:10.046Z,11.38
2022-08-01T21:04:55.982Z,11.25
2022-08-01T21:07:52.366Z,9.40
2022-08-01T21:10:21.400Z,10.75
2022-08-01T21:12:49.598Z,14.63
2022-08-01T21:15:29.903Z,13.60
2022-08-01T21:18:06.439Z,15.32
2022-08-01T21:20:34.865Z,17.75
2022-08-01T21:23:05.198Z,11.57
2022-08-01T21:25:35.797Z,10.70
2022-08-01T21:28:03.815Z,10.75
2022-08-01T21:30:31.472Z,16.02
2022-08-01T21:32:58.199Z,11.30
2022-08-01T21:35:26.342Z,14.20
2022-08-01T21:37:53.246Z,10.68
2022-08-01T21:40:22.146Z,10.90
2022-08-01T21:42:51.216Z,12.57
2022-08-01T21:45:20.854Z,13.38
2022-08-01T21:47:49.047Z,11.60
2022-08-01T21:50:15.836Z,16.35
2022-08-01T21:52:45.847Z,13.43
2022-08-01T21:55:35.864Z,11.38
2022-08-01T21:58:30.824Z,17.03
2022-08-01T22:01:06.246Z,11.98
2022-08-01T22:03:53.651Z,14.25
2022-08-01T22:06:21.074Z,11.07
2022-08-01T22:08:56.598Z,14.18
2022-08-01T22:11:29.186Z,17.30
2022-08-01T22:13:58.554Z,11.80
2022-08-01T22:16:27.349Z,13.48
2022-08-01T22:18:54.526Z,13.13
2022-08-01T22:21:21.319Z,12.98
2022-08-01T22:23:47.998Z,16.80
2022-08-01T22:26:14.674Z,12.73
2022-08-01T22:28:41.331Z,15.65
2022-08-01T22:31:08.000Z,12.80
2022-08-01T22:33:38.435Z,11.82
2022-08-01T22:36:06.691Z,12.10
2022-08-01T22:38:35.071Z,11.73
2022-08-01T22:41:05.152Z,11.73
2022-08-01T22:43:56.880Z,12.37
2022-08-01T22:46:46.631Z,16.38
2022-08-01T22:49:35.288Z,15.75
2022-08-01T22:52:12.711Z,14.25
2022-08-01T22:54:40.917Z,12.20
2022-08-01T22:57:12.622Z,13.85
2022-08-01T22:59:44.557Z,14.95
2022-08-01T23:02:15.288Z,15.13
2022-08-01T23:07:22.107Z,13.50
2022-08-01T23:09:55.515Z,16.23
2022-08-01T23:12:26.857Z,15.23
2022-08-01T23:14:55.890Z,16.70
2022-08-01T23:17:27.548Z,17.23
2022-08-01T23:20:00.116Z,14.85
2022-08-01T23:22:31.790Z,14.55
2022-08-01T23:25:05.096Z,14.10
2022-08-01T23:27:54.199Z,17.20
2022-08-01T23:30:24.843Z,18.58
2022-08-01T23:32:51.536Z,16.23
2022-08-01T23:35:18.124Z,16.63
2022-08-01T23:37:44.736Z,14.80
2022-08-01T23:40:11.778Z,16.23
2022-08-01T23:42:38.402Z,16.63
2022-08-01T23:45:05.599Z,15.98
2022-08-01T23:47:32.174Z,17.67
2022-08-01T23:49:58.652Z,18.67
2022-08-01T23:52:28.080Z,17.50
2022-08-01T23:54:58.932Z,16.23
2022-08-01T23:57:26.585Z,17.40
2022-08-01T23:59:54.085Z,16.05
